Time;durP1;ratioP1;P1;durP2;ratioP2;P2;SDS_P1;SDS_P2;PMS_P1;PMS_P2;Temp;Humidity;BMP_temperature;BMP_pressure;BME280_temperature;BME280_humidity;BME280_pressure;Samples;Min_cycle;Max_cycle;Signal;HPM_P1;HPM_P2
2023/06/02 00:01:07;;;;;;;6.40;5.77;;;15.90;1.00;;;;;;5050458;28;20219;-55
2023/06/02 00:03:34;;;;;;;7.87;5.80;;;15.80;1.00;;;;;;5049776;28;20666;-55
2023/06/02 00:06:01;;;;;;;8.80;6.37;;;15.80;1.00;;;;;;5048175;28;20816;-55
2023/06/02 00:08:27;;;;;;;6.03;5.10;;;15.80;1.00;;;;;;5047959;28;20456;-56
2023/06/02 00:10:53;;;;;;;10.20;5.97;;;15.90;1.00;;;;;;5059326;28;20466;-54
2023/06/02 00:13:19;;;;;;;7.07;6.00;;;15.80;1.00;;;;;;5047466;28;20832;-55
2023/06/02 00:15:45;;;;;;;11.73;6.10;;;15.70;1.00;;;;;;5052788;28;20653;-55
2023/06/02 00:18:11;;;;;;;8.90;5.60;;;15.70;1.00;;;;;;5061103;28;20443;-53
2023/06/02 00:20:37;;;;;;;6.13;5.53;;;15.70;1.00;;;;;;5053503;28;20215;-53
2023/06/02 00:23:03;;;;;;;12.27;5.37;;;15.70;1.00;;;;;;5050123;28;20176;-54
2023/06/02 00:25:30;;;;;;;7.27;6.00;;;15.60;1.00;;;;;;5049281;28;20564;-55
2023/06/02 00:27:56;;;;;;;7.27;5.77;;;15.70;1.00;;;;;;5057401;28;20522;-54
2023/06/02 00:30:22;;;;;;;8.67;5.63;;;15.70;1.00;;;;;;5054612;28;20584;-56
2023/06/02 00:32:47;;;;;;;7.70;5.80;;;15.70;1.00;;;;;;5055005;28;20676;-55
2023/06/02 00:35:13;;;;;;;8.80;5.67;;;15.70;1.00;;;;;;5055846;28;20203;-53
2023/06/02 00:37:39;;;;;;;11.27;6.10;;;15.60;1.00;;;;;;5058139;28;20185;-55
2023/06/02 00:40:05;;;;;;;9.90;5.93;;;15.60;1.00;;;;;;5058444;28;20282;-56
2023/06/02 00:42:31;;;;;;;7.60;5.90;;;15.70;1.00;;;;;;5056211;28;20745;-53
2023/06/02 00:44:56;;;;;;;7.37;5.93;;;15.60;1.00;;;;;;5057402;28;20463;-53
2023/06/02 00:47:22;;;;;;;6.90;5.53;;;15.60;1.00;;;;;;5053354;28;20544;-57
2023/06/02 00:49:48;;;;;;;10.20;5.70;;;15.50;1.00;;;;;;5054035;28;20194;-56
2023/06/02 00:52:15;;;;;;;9.60;6.10;;;15.40;1.00;;;;;;5049523;28;20197;-54
2023/06/02 00:54:41;;;;;;;6.90;5.90;;;15.50;1.00;;;;;;5059905;28;20190;-54
2023/06/02 00:57:07;;;;;;;7.10;5.87;;;15.40;1.00;;;;;;5047882;28;20825;-54
2023/06/02 00:59:33;;;;;;;10.83;6.07;;;15.30;1.00;;;;;;5054683;28;20244;-54
2023/06/02 01:01:59;;;;;;;8.20;5.70;;;15.20;1.00;;;;;;5052684;28;20863;-55
2023/06/02 01:04:26;;;;;;;8.77;7.00;;;15.20;1.00;;;;;;5057820;28;20207;-54
2023/06/02 01:06:54;;;;;;;9.43;5.37;;;15.10;1.00;;;;;;5052919;28;20495;-54
2023/06/02 01:09:20;;;;;;;9.33;5.80;;;15.00;1.00;;;;;;5050213;28;20815;-55
2023/06/02 01:11:49;;;;;;;7.00;5.50;;;15.00;1.00;;;;;;5052784;28;20821;-52
2023/06/02 01:14:15;;;;;;;8.00;5.87;;;14.90;1.00;;;;;;5049246;28;20446;-53
2023/06/02 01:16:44;;;;;;;8.00;5.93;;;14.90;1.00;;;;;;5051522;28;20498;-54
2023/06/02 01:19:14;;;;;;;9.70;5.43;;;15.00;1.00;;;;;;5052007;28;20462;-52
2023/06/02 01:21:44;;;;;;;8.43;5.57;;;14.90;1.00;;;;;;5052919;28;20479;-54
2023/06/02 01:24:10;;;;;;;7.63;6.17;;;15.00;1.00;;;;;;5052901;28;20558;-55
2023/06/02 01:26:36;;;;;;;7.80;5.37;;;14.90;1.00;;;;;;5058370;28;20984;-55
2023/06/02 01:29:03;;;;;;;8.03;6.67;;;14.80;1.00;;;;;;5057742;28;20446;-55
2023/06/02 01:31:46;;;;;;;8.53;6.67;;;14.80;1.00;;;;;;5057253;28;20185;-54
2023/06/02 01:34:52;;;;;;;8.87;5.70;;;14.80;1.00;;;;;;5050154;28;20716;-53
2023/06/02 01:37:20;;;;;;;9.53;6.00;;;14.60;1.00;;;;;;5027867;28;20461;-52
2023/06/02 01:39:47;;;;;;;9.60;6.33;;;14.60;1.00;;;;;;5051225;28;20447;-55
2023/06/02 01:42:15;;;;;;;9.30;5.60;;;14.60;1.00;;;;;;5056681;28;20462;-55
2023/06/02 01:44:42;;;;;;;8.80;6.10;;;14.60;1.00;;;;;;5055199;28;20529;-53
2023/06/02 01:47:09;;;;;;;10.37;6.97;;;14.50;1.00;;;;;;5059495;28;20446;-53
2023/06/02 01:49:34;;;;;;;7.97;6.40;;;14.40;1.00;;;;;;5054504;28;20446;-52
2023/06/02 01:52:00;;;;;;;9.77;5.90;;;14.30;1.00;;;;;;5047953;28;21009;-56
2023/06/02 01:54:26;;;;;;;9.33;6.20;;;14.20;1.00;;;;;;5046319;28;20192;-56
2023/06/02 01:56:51;;;;;;;8.00;6.10;;;14.20;1.00;;;;;;5046639;28;20184;-55
2023/06/02 01:59:17;;;;;;;9.07;5.77;;;14.30;1.00;;;;;;5048873;28;20705;-55
2023/06/02 02:01:44;;;;;;;12.90;6.47;;;14.30;1.00;;;;;;5047690;28;20189;-56
2023/06/02 02:04:10;;;;;;;7.93;6.30;;;14.20;1.00;;;;;;5043438;28;20216;-55
2023/06/02 02:06:37;;;;;;;8.37;5.57;;;14.20;1.00;;;;;;5044909;28;20520;-56
2023/06/02 02:09:03;;;;;;;10.07;7.27;;;14.20;1.00;;;;;;5046385;28;20443;-56
2023/06/02 02:11:29;;;;;;;8.13;5.97;;;14.20;1.00;;;;;;5042133;28;20478;-57
2023/06/02 02:13:55;;;;;;;13.53;6.40;;;14.20;1.00;;;;;;5046826;28;20988;-56
2023/06/02 02:16:21;;;;;;;7.43;5.70;;;14.20;1.00;;;;;;5042106;28;20470;-56
2023/06/02 02:18:47;;;;;;;8.97;5.77;;;14.20;1.00;;;;;;5045844;28;20459;-56
2023/06/02 02:21:13;;;;;;;9.17;6.00;;;14.20;1.00;;;;;;5044627;28;20251;-56
2023/06/02 02:23:40;;;;;;;6.20;5.60;;;14.20;1.00;;;;;;5045748;28;20498;-57
2023/06/02 02:26:06;;;;;;;8.50;5.53;;;14.00;1.00;;;;;;5045111;28;20932;-55
2023/06/02 02:28:32;;;;;;;9.20;6.43;;;13.90;1.00;;;;;;5043266;28;20505;-56
2023/06/02 02:30:58;;;;;;;9.37;6.37;;;13.90;1.00;;;;;;5041704;28;20478;-56
2023/06/02 02:33:23;;;;;;;10.13;5.53;;;14.00;1.00;;;;;;5043944;28;20475;-55
2023/06/02 02:35:51;;;;;;;10.47;6.53;;;14.00;1.00;;;;;;5041819;28;20474;-55
2023/06/02 02:38:16;;;;;;;8.20;6.27;;;14.00;1.00;;;;;;5046221;28;20196;-56
2023/06/02 02:40:42;;;;;;;8.70;5.73;;;14.00;1.00;;;;;;5042267;28;20451;-55
2023/06/02 02:43:08;;;;;;;8.67;6.10;;;14.00;1.00;;;;;;5045697;28;20196;-56
2023/06/02 02:45:33;;;;;;;10.03;5.90;;;14.10;1.00;;;;;;5044282;28;20223;-55
2023/06/02 02:47:59;;;;;;;9.43;6.00;;;14.10;1.00;;;;;;5044947;28;20196;-56
2023/06/02 02:50:25;;;;;;;11.93;6.20;;;14.10;1.00;;;;;;5046983;28;20268;-55
2023/06/02 02:52:51;;;;;;;9.73;6.53;;;14.10;1.00;;;;;;5044492;28;20447;-57
2023/06/02 02:55:16;;;;;;;8.20;6.10;;;14.00;1.00;;;;;;5043278;28;20447;-56
2023/06/02 02:57:42;;;;;;;9.00;6.30;;;14.10;1.00;;;;;;5044794;28;20275;-55
2023/06/02 03:00:09;;;;;;;8.13;5.80;;;14.00;1.00;;;;;;5045755;28;20797;-55
2023/06/02 03:02:38;;;;;;;11.07;5.80;;;13.90;1.00;;;;;;5047675;28;20212;-56
2023/06/02 03:05:06;;;;;;;7.27;6.17;;;14.10;1.00;;;;;;5045416;28;20535;-56
2023/06/02 03:07:31;;;;;;;9.57;5.93;;;14.00;1.00;;;;;;5046506;28;20534;-56
2023/06/02 03:09:57;;;;;;;11.53;5.60;;;14.10;1.00;;;;;;5038425;28;20526;-57
2023/06/02 03:12:23;;;;;;;7.57;5.20;;;14.00;1.00;;;;;;5038064;28;20272;-55
2023/06/02 03:14:48;;;;;;;10.13;5.87;;;14.00;1.00;;;;;;5044750;28;20531;-56
2023/06/02 03:17:14;;;;;;;8.93;6.00;;;13.90;1.00;;;;;;5047592;28;20196;-56
2023/06/02 03:19:40;;;;;;;10.40;5.30;;;13.90;1.00;;;;;;5045523;28;20188;-56
2023/06/02 03:22:06;;;;;;;9.33;5.00;;;13.90;1.00;;;;;;5044538;28;20189;-55
2023/06/02 03:24:32;;;;;;;14.77;6.30;;;13.90;1.00;;;;;;5046323;28;20579;-55
2023/06/02 03:26:58;;;;;;;11.50;6.60;;;13.90;1.00;;;;;;5043326;28;20458;-56
2023/06/02 03:29:23;;;;;;;10.43;6.57;;;13.90;1.00;;;;;;5042502;28;20293;-55
2023/06/02 03:31:54;;;;;;;8.80;6.40;;;13.90;1.00;;;;;;5042770;28;20192;-56
2023/06/02 03:34:22;;;;;;;11.63;6.33;;;13.90;1.00;;;;;;5045013;28;20188;-57
2023/06/02 03:36:48;;;;;;;7.23;5.20;;;13.90;1.00;;;;;;5043734;28;20443;-55
2023/06/02 03:39:14;;;;;;;7.20;5.33;;;13.90;1.00;;;;;;5045816;28;20836;-56
2023/06/02 03:41:40;;;;;;;8.03;5.90;;;14.00;1.00;;;;;;5044243;28;20454;-55
2023/06/02 03:44:06;;;;;;;8.33;5.30;;;14.00;1.00;;;;;;5044526;28;20468;-55
2023/06/02 03:46:32;;;;;;;9.93;5.70;;;13.80;1.00;;;;;;5044400;28;20279;-56
2023/06/02 03:48:58;;;;;;;7.00;5.90;;;13.80;1.00;;;;;;5043064;28;20663;-55
2023/06/02 03:51:24;;;;;;;11.03;6.13;;;13.90;1.00;;;;;;5046427;28;20427;-55
2023/06/02 03:53:50;;;;;;;9.13;5.50;;;13.90;1.00;;;;;;5042703;28;20461;-55
2023/06/02 03:56:16;;;;;;;9.70;5.17;;;13.90;1.00;;;;;;5042762;28;20498;-56
2023/06/02 03:58:42;;;;;;;8.10;4.97;;;13.90;1.00;;;;;;5044050;28;20325;-55
2023/06/02 04:01:08;;;;;;;10.27;5.37;;;14.00;1.00;;;;;;5044951;28;20176;-57
2023/06/02 04:03:36;;;;;;;8.80;5.73;;;14.00;1.00;;;;;;5045681;28;20223;-55
2023/06/02 04:06:06;;;;;;;11.00;5.70;;;13.90;1.00;;;;;;5043934;28;21114;-56
2023/06/02 04:08:35;;;;;;;11.53;6.63;;;14.00;1.00;;;;;;5046825;28;20437;-57
2023/06/02 04:11:01;;;;;;;14.83;6.23;;;14.10;1.00;;;;;;5044511;28;20550;-56
2023/06/02 04:13:27;;;;;;;12.17;6.40;;;14.20;1.00;;;;;;5042823;28;20561;-57
2023/06/02 04:15:53;;;;;;;12.93;6.53;;;14.20;1.00;;;;;;5044133;28;20805;-56
2023/06/02 04:18:18;;;;;;;10.43;6.00;;;14.20;1.00;;;;;;5046627;28;20446;-55
2023/06/02 04:20:44;;;;;;;10.73;6.17;;;14.30;1.00;;;;;;5043840;28;20216;-56
2023/06/02 04:23:09;;;;;;;10.47;5.00;;;14.30;1.00;;;;;;5046470;28;20594;-55
2023/06/02 04:25:35;;;;;;;10.20;5.40;;;14.20;1.00;;;;;;5035543;28;20287;-56
2023/06/02 04:28:01;;;;;;;13.03;5.90;;;14.00;1.00;;;;;;5042709;28;20187;-55
2023/06/02 04:30:27;;;;;;;8.10;5.20;;;14.10;1.00;;;;;;5042821;28;20222;-55
2023/06/02 04:32:52;;;;;;;9.93;6.30;;;14.20;1.00;;;;;;5042801;28;20668;-54
2023/06/02 04:35:18;;;;;;;7.90;5.10;;;14.30;1.00;;;;;;5035247;28;20199;-56
2023/06/02 04:37:45;;;;;;;10.90;5.53;;;14.20;1.00;;;;;;5045812;28;20505;-56
2023/06/02 04:40:11;;;;;;;9.13;4.33;;;14.20;1.00;;;;;;5043408;28;20184;-57
2023/06/02 04:42:39;;;;;;;10.17;4.93;;;14.10;1.00;;;;;;5042321;28;20521;-54
2023/06/02 04:45:12;;;;;;;10.30;5.30;;;14.00;1.00;;;;;;5041941;28;20236;-56
2023/06/02 04:47:40;;;;;;;8.23;4.97;;;14.10;1.00;;;;;;5041841;28;20435;-57
2023/06/02 04:50:09;;;;;;;15.97;4.97;;;14.20;1.00;;;;;;5041426;28;20538;-55
2023/06/02 04:52:37;;;;;;;12.73;5.20;;;14.30;1.00;;;;;;5041128;28;20443;-57
2023/06/02 04:55:03;;;;;;;12.63;4.47;;;14.20;1.00;;;;;;5044000;28;20447;-57
2023/06/02 04:57:29;;;;;;;11.27;4.80;;;14.30;1.00;;;;;;5045143;28;20468;-56
2023/06/02 04:59:54;;;;;;;12.73;5.00;;;14.40;1.00;;;;;;5049090;28;20894;-56
2023/06/02 05:02:20;;;;;;;11.50;6.20;;;14.50;1.00;;;;;;5051167;28;20442;-56
2023/06/02 05:04:46;;;;;;;18.43;5.63;;;14.40;1.00;;;;;;5049321;28;20211;-57
2023/06/02 05:07:11;;;;;;;16.30;6.20;;;14.40;1.00;;;;;;5050948;28;20211;-57
2023/06/02 05:09:37;;;;;;;11.00;4.90;;;14.40;1.00;;;;;;5044136;28;20195;-56
2023/06/02 05:12:03;;;;;;;12.80;4.83;;;14.50;1.00;;;;;;5044771;28;22025;-55
2023/06/02 05:14:28;;;;;;;12.87;5.70;;;14.60;1.00;;;;;;5045021;28;20184;-56
2023/06/02 05:16:55;;;;;;;10.23;4.93;;;14.80;1.00;;;;;;5044915;28;20443;-57
2023/06/02 05:19:20;;;;;;;14.00;5.70;;;14.70;1.00;;;;;;5047575;28;20192;-57
2023/06/02 05:21:46;;;;;;;12.27;5.70;;;14.90;1.00;;;;;;5045860;28;20496;-56
2023/06/02 05:24:11;;;;;;;8.57;5.00;;;15.10;1.00;;;;;;5045145;28;20248;-57
2023/06/02 05:26:37;;;;;;;8.17;4.50;;;15.30;1.00;;;;;;5048645;28;20188;-56
2023/06/02 05:29:03;;;;;;;15.70;5.63;;;15.40;99.90;;;;;;5048368;28;20184;-56
2023/06/02 05:31:28;;;;;;;13.40;6.00;;;15.40;1.00;;;;;;5048590;28;20188;-57
2023/06/02 05:33:54;;;;;;;12.57;5.80;;;15.30;99.90;;;;;;5047442;28;20453;-55
2023/06/02 05:36:20;;;;;;;11.90;5.30;;;15.20;99.90;;;;;;5055348;28;20276;-54
2023/06/02 05:38:45;;;;;;;12.10;5.00;;;15.30;99.90;;;;;;5061338;28;20231;-55
2023/06/02 05:41:11;;;;;;;10.23;5.00;;;15.30;99.90;;;;;;5051051;28;20193;-54
2023/06/02 05:43:37;;;;;;;15.40;5.70;;;15.20;99.90;;;;;;5057763;28;20739;-54
2023/06/02 05:46:02;;;;;;;11.13;4.60;;;15.20;99.90;;;;;;5051687;28;20219;-55
2023/06/02 05:48:28;;;;;;;15.03;5.10;;;15.30;99.90;;;;;;5057676;28;20270;-55
2023/06/02 05:50:53;;;;;;;12.10;6.10;;;15.20;99.90;;;;;;5049095;28;20192;-56
2023/06/02 05:53:19;;;;;;;10.13;4.70;;;15.30;99.90;;;;;;5057926;28;20213;-57
2023/06/02 05:55:45;;;;;;;9.53;5.63;;;15.40;99.90;;;;;;5050437;28;20194;-56
2023/06/02 05:58:11;;;;;;;16.47;5.70;;;15.30;99.90;;;;;;5055262;28;20196;-55
2023/06/02 06:00:38;;;;;;;14.53;5.83;;;15.40;99.90;;;;;;5057329;28;20797;-55
2023/06/02 06:03:04;;;;;;;15.60;5.93;;;15.50;99.90;;;;;;5052239;28;20604;-55
2023/06/02 06:05:30;;;;;;;12.97;6.60;;;15.30;99.90;;;;;;5051734;28;20506;-54
2023/06/02 06:07:56;;;;;;;8.80;5.47;;;15.30;99.90;;;;;;5055224;28;20439;-56
2023/06/02 06:10:23;;;;;;;18.13;6.20;;;15.50;99.90;;;;;;5052485;28;20521;-55
2023/06/02 06:12:48;;;;;;;11.70;5.70;;;15.10;99.90;;;;;;5049225;28;20442;-55
2023/06/02 06:15:14;;;;;;;16.13;6.30;;;15.20;99.90;;;;;;5054306;28;20460;-56
2023/06/02 06:17:52;;;;;;;15.80;5.63;;;15.40;99.90;;;;;;5049661;28;20201;-56
2023/06/02 06:20:18;;;;;;;11.30;4.93;;;15.70;99.90;;;;;;5052361;28;20457;-56
2023/06/02 06:22:44;;;;;;;11.67;5.60;;;15.80;99.90;;;;;;5056429;28;20769;-55
2023/06/02 06:25:10;;;;;;;9.50;5.20;;;15.70;99.90;;;;;;5055639;28;20473;-55
2023/06/02 06:27:37;;;;;;;14.50;6.70;;;15.90;99.90;;;;;;5058797;28;20192;-55
2023/06/02 06:30:03;;;;;;;11.13;6.63;;;16.20;99.90;;;;;;5056011;28;20480;-56
2023/06/02 06:32:29;;;;;;;18.90;6.87;;;16.60;99.90;;;;;;5057817;28;20466;-54
2023/06/02 06:34:54;;;;;;;12.50;5.93;;;16.50;99.90;;;;;;5055564;28;20529;-55
2023/06/02 06:37:20;;;;;;;15.20;6.30;;;16.10;99.90;;;;;;5057432;28;20197;-55
2023/06/02 06:39:45;;;;;;;14.70;7.10;;;16.00;99.90;;;;;;5049257;28;20215;-55
2023/06/02 06:42:11;;;;;;;13.10;6.83;;;16.10;99.90;;;;;;5062077;28;20191;-57
2023/06/02 06:44:37;;;;;;;14.07;6.30;;;16.50;99.90;;;;;;5055770;28;20251;-56
2023/06/02 06:47:03;;;;;;;11.73;5.87;;;16.40;99.90;;;;;;5053502;28;20190;-56
2023/06/02 06:49:29;;;;;;;8.43;5.80;;;16.30;99.90;;;;;;5056841;28;20534;-55
2023/06/02 06:51:54;;;;;;;10.43;6.03;;;16.50;99.90;;;;;;5055734;28;20193;-57
2023/06/02 06:54:20;;;;;;;10.43;5.63;;;16.60;99.90;;;;;;5047887;28;20611;-56
2023/06/02 06:56:46;;;;;;;10.83;6.00;;;16.60;99.90;;;;;;5049600;28;20277;-55
2023/06/02 06:59:12;;;;;;;14.83;6.83;;;16.70;99.90;;;;;;5053763;28;20639;-55
2023/06/02 07:01:38;;;;;;;17.03;5.93;;;16.60;99.90;;;;;;5052448;28;20197;-56
2023/06/02 07:04:04;;;;;;;10.80;6.30;;;16.80;99.90;;;;;;5050024;28;20475;-56
2023/06/02 07:06:30;;;;;;;14.00;6.60;;;17.00;99.90;;;;;;5054426;28;20952;-56
2023/06/02 07:08:57;;;;;;;9.30;5.53;;;17.00;99.90;;;;;;5045788;28;20616;-57
2023/06/02 07:11:23;;;;;;;10.47;6.50;;;17.00;99.90;;;;;;5054023;28;20447;-56
2023/06/02 07:13:48;;;;;;;17.90;6.83;;;16.90;99.90;;;;;;5058119;28;20219;-55
2023/06/02 07:16:14;;;;;;;13.30;6.70;;;17.10;99.90;;;;;;5051915;28;20241;-56
2023/06/02 07:18:39;;;;;;;14.53;6.13;;;17.20;99.90;;;;;;5047915;28;20701;-55
2023/06/02 07:21:05;;;;;;;8.87;6.40;;;17.20;99.90;;;;;;5048898;28;20585;-57
2023/06/02 07:23:31;;;;;;;14.20;6.60;;;17.20;99.90;;;;;;5052421;28;20189;-55
2023/06/02 07:25:56;;;;;;;10.63;6.80;;;17.30;99.90;;;;;;5059948;28;20192;-56
2023/06/02 07:28:22;;;;;;;8.30;6.37;;;17.40;99.90;;;;;;5050506;28;20196;-57
2023/06/02 07:30:48;;;;;;;13.07;6.70;;;17.20;99.90;;;;;;5048201;28;20246;-56
2023/06/02 07:33:15;;;;;;;13.07;6.83;;;17.30;99.90;;;;;;5044116;28;20190;-57
2023/06/02 07:35:41;;;;;;;16.53;6.83;;;17.40;99.90;;;;;;5051386;28;20442;-56
2023/06/02 07:38:07;;;;;;;17.20;6.43;;;17.60;99.90;;;;;;5040425;28;20773;-55
2023/06/02 07:40:32;;;;;;;17.27;6.67;;;17.60;99.90;;;;;;5048491;28;20442;-54
2023/06/02 07:42:58;;;;;;;15.40;7.13;;;17.40;99.90;;;;;;5052404;28;20272;-55
2023/06/02 07:45:24;;;;;;;14.97;7.60;;;17.40;99.90;;;;;;5054760;28;20249;-56
2023/06/02 07:47:49;;;;;;;13.27;7.67;;;17.50;99.90;;;;;;5045158;28;20204;-57
2023/06/02 07:50:15;;;;;;;12.53;6.50;;;17.80;99.90;;;;;;5053868;28;20184;-56
2023/06/02 07:52:40;;;;;;;10.20;6.33;;;18.00;99.90;;;;;;5058318;28;20279;-55
2023/06/02 07:55:06;;;;;;;11.30;6.30;;;17.80;99.90;;;;;;5048858;28;20227;-56
2023/06/02 07:57:32;;;;;;;12.60;6.40;;;17.70;99.90;;;;;;5049120;28;20192;-55
2023/06/02 07:59:58;;;;;;;12.80;6.93;;;17.90;99.90;;;;;;5047044;28;20524;-55
2023/06/02 08:02:24;;;;;;;19.33;6.47;;;18.30;99.90;;;;;;5047638;28;20189;-56
2023/06/02 08:04:49;;;;;;;17.83;6.53;;;18.50;99.90;;;;;;5051116;28;20464;-56
2023/06/02 08:07:15;;;;;;;13.73;6.53;;;18.80;99.90;;;;;;5051389;28;20188;-57
2023/06/02 08:09:40;;;;;;;11.83;6.20;;;18.90;99.90;;;;;;5055552;28;20199;-56
2023/06/02 08:12:06;;;;;;;13.60;6.00;;;18.80;99.90;;;;;;5058950;28;20191;-55
2023/06/02 08:14:32;;;;;;;12.03;5.93;;;18.90;99.90;;;;;;5051851;28;20249;-56
2023/06/02 08:16:58;;;;;;;11.40;6.30;;;18.90;99.90;;;;;;5053944;28;20439;-56
2023/06/02 08:19:24;;;;;;;13.20;5.83;;;19.10;99.90;;;;;;5056641;28;20188;-55
2023/06/02 08:21:50;;;;;;;9.60;5.13;;;19.00;99.90;;;;;;5054296;28;20191;-55
2023/06/02 08:24:15;;;;;;;12.37;6.40;;;19.40;99.90;;;;;;5046971;28;20463;-56
2023/06/02 08:26:41;;;;;;;13.70;6.77;;;19.60;99.90;;;;;;5061993;28;21022;-57
2023/06/02 08:29:11;;;;;;;11.57;5.77;;;19.90;99.90;;;;;;5056483;28;20181;-55
2023/06/02 08:31:36;;;;;;;13.23;6.20;;;20.00;99.90;;;;;;5053737;28;20450;-55
2023/06/02 08:34:05;;;;;;;11.70;5.87;;;20.10;99.90;;;;;;5055471;28;20775;-55
2023/06/02 08:36:33;;;;;;;11.60;5.90;;;19.70;99.90;;;;;;5053373;28;20232;-55
2023/06/02 08:38:59;;;;;;;15.30;6.00;;;19.60;99.90;;;;;;5061272;28;20461;-57
2023/06/02 08:41:26;;;;;;;9.83;4.83;;;19.90;99.90;;;;;;5053308;28;20456;-54
2023/06/02 08:43:52;;;;;;;10.40;5.90;;;19.90;99.90;;;;;;5040985;28;20463;-57
2023/06/02 08:46:17;;;;;;;16.40;7.33;;;19.80;99.90;;;;;;5046511;28;20802;-55
2023/06/02 08:48:47;;;;;;;17.20;6.97;;;19.70;99.90;;;;;;5043317;28;20546;-55
2023/06/02 08:51:22;;;;;;;12.03;5.80;;;19.40;99.90;;;;;;5042880;28;20185;-55
2023/06/02 08:53:47;;;;;;;13.73;5.50;;;19.40;99.90;;;;;;5049168;28;20497;-55
2023/06/02 08:56:15;;;;;;;11.03;5.60;;;19.30;99.90;;;;;;5049194;28;20443;-56
2023/06/02 08:58:43;;;;;;;11.87;6.37;;;19.00;99.90;;;;;;5057400;28;20476;-55
2023/06/02 09:01:10;;;;;;;10.03;6.27;;;18.70;99.90;;;;;;5049263;28;20484;-56
2023/06/02 09:03:36;;;;;;;17.70;6.67;;;18.50;99.90;;;;;;5059892;28;20447;-55
2023/06/02 09:06:17;;;;;;;22.30;5.80;;;18.60;99.90;;;;;;5061547;28;20453;-57
2023/06/02 09:08:57;;;;;;;12.57;5.70;;;18.80;99.90;;;;;;5058803;28;20180;-55
2023/06/02 09:11:24;;;;;;;14.13;8.90;;;19.20;99.90;;;;;;5054114;28;20809;-55
2023/06/02 09:13:49;;;;;;;10.07;5.57;;;19.30;99.90;;;;;;5053880;28;20507;-56
2023/06/02 09:16:15;;;;;;;11.83;5.10;;;19.10;99.90;;;;;;5056007;28;20803;-55
2023/06/02 09:18:55;;;;;;;10.93;5.67;;;19.10;99.90;;;;;;5055411;28;20645;-56
2023/06/02 09:21:27;;;;;;;10.43;5.73;;;19.50;99.90;;;;;;5058233;28;20804;-56
2023/06/02 09:23:53;;;;;;;11.60;5.30;;;19.50;99.90;;;;;;5060859;28;20498;-56
2023/06/02 09:26:23;;;;;;;32.30;21.97;;;19.70;99.90;;;;;;5057672;28;20522;-56
2023/06/02 09:29:12;;;;;;;17.43;5.90;;;19.90;99.90;;;;;;5051369;28;20623;-55
2023/06/02 09:31:50;;;;;;;13.43;5.23;;;20.30;99.90;;;;;;5054817;28;20452;-57
2023/06/02 09:34:17;;;;;;;16.07;5.40;;;20.40;99.90;;;;;;5056617;28;20447;-57
2023/06/02 09:36:45;;;;;;;11.90;3.70;;;20.10;99.90;;;;;;5053746;28;20460;-56
2023/06/02 09:39:11;;;;;;;10.63;4.57;;;20.30;99.90;;;;;;5048010;28;21266;-56
2023/06/02 09:41:40;;;;;;;9.20;3.80;;;20.40;99.90;;;;;;5053658;28;20523;-55
2023/06/02 09:44:16;;;;;;;11.90;4.87;;;21.00;99.90;;;;;;5056153;28;20554;-55
2023/06/02 09:46:43;;;;;;;12.57;5.83;;;21.10;99.90;;;;;;5053292;28;21007;-56
2023/06/02 09:49:10;;;;;;;10.90;4.77;;;20.90;99.90;;;;;;5054111;28;20455;-55
2023/06/02 09:51:37;;;;;;;14.40;5.37;;;20.70;99.90;;;;;;5055123;28;20452;-56
2023/06/02 09:54:04;;;;;;;7.70;4.20;;;20.60;99.90;;;;;;5053997;28;20448;-55
2023/06/02 09:56:34;;;;;;;11.07;4.40;;;20.50;99.90;;;;;;5061349;28;20487;-57
2023/06/02 09:59:07;;;;;;;12.87;4.30;;;20.40;99.90;;;;;;5057973;28;20486;-58
2023/06/02 10:01:34;;;;;;;12.80;4.80;;;20.60;99.90;;;;;;5060437;28;20814;-56
2023/06/02 10:04:01;;;;;;;12.67;4.70;;;20.50;99.90;;;;;;5058802;28;20465;-56
2023/06/02 10:06:46;;;;;;;12.43;4.03;;;20.30;99.90;;;;;;5059693;28;20447;-56
2023/06/02 10:09:33;;;;;;;10.27;4.60;;;20.20;99.90;;;;;;5060409;28;20445;-55
2023/06/02 10:12:06;;;;;;;9.57;4.43;;;20.10;99.90;;;;;;5056089;28;20461;-55
2023/06/02 10:14:47;;;;;;;8.60;3.73;;;20.30;99.90;;;;;;5049763;28;20445;-55
2023/06/02 10:17:25;;;;;;;4.53;3.30;;;20.70;99.90;;;;;;5054663;28;20446;-55
2023/06/02 10:20:13;;;;;;;13.27;3.40;;;21.10;99.90;;;;;;5052380;28;20448;-56
2023/06/02 10:22:56;;;;;;;12.20;4.20;;;21.30;99.90;;;;;;5050935;28;20448;-55
2023/06/02 10:25:41;;;;;;;7.07;3.03;;;21.30;99.90;;;;;;5056759;28;20517;-55
2023/06/02 10:28:08;;;;;;;10.40;3.47;;;20.90;99.90;;;;;;5051894;28;20488;-56
2023/06/02 10:30:37;;;;;;;9.60;4.10;;;20.80;99.90;;;;;;5051267;28;20439;-55
2023/06/02 10:33:03;;;;;;;9.23;3.20;;;21.10;99.90;;;;;;5052866;28;20457;-56
2023/06/02 10:35:55;;;;;;;9.13;3.57;;;21.90;99.90;;;;;;5057147;28;20539;-57
2023/06/02 10:38:31;;;;;;;7.20;3.43;;;22.10;99.90;;;;;;5056823;28;20466;-55
2023/06/02 10:40:57;;;;;;;9.27;3.53;;;22.30;99.90;;;;;;5060261;28;20454;-56
2023/06/02 10:43:23;;;;;;;4.97;3.27;;;22.20;99.90;;;;;;5051825;28;20451;-56
2023/06/02 10:45:49;;;;;;;5.10;3.40;;;21.60;99.90;;;;;;5054150;28;20481;-55
2023/06/02 10:48:34;;;;;;;7.10;3.73;;;21.40;99.90;;;;;;5062146;28;20660;-56
2023/06/02 10:50:59;;;;;;;7.60;3.57;;;21.60;99.90;;;;;;5051774;28;20763;-55
2023/06/02 10:53:25;;;;;;;6.83;3.33;;;21.80;99.90;;;;;;5056506;28;20446;-55
2023/06/02 10:55:51;;;;;;;9.20;3.30;;;21.80;99.90;;;;;;5052148;28;20194;-56
2023/06/02 10:58:16;;;;;;;7.27;3.90;;;21.80;99.90;;;;;;5050204;28;20601;-56
2023/06/02 11:00:45;;;;;;;7.60;3.57;;;21.60;99.90;;;;;;5054766;28;20194;-57
2023/06/02 11:03:22;;;;;;;13.00;3.90;;;21.40;99.90;;;;;;5053803;28;20330;-57
2023/06/02 11:05:50;;;;;;;9.30;3.50;;;21.40;99.90;;;;;;5049163;28;20464;-57
2023/06/02 11:08:17;;;;;;;9.30;3.23;;;21.40;99.90;;;;;;5051701;28;20804;-58
2023/06/02 11:10:45;;;;;;;6.20;3.10;;;21.30;99.90;;;;;;5052952;28;20449;-57
2023/06/02 11:13:14;;;;;;;7.47;3.53;;;22.00;99.90;;;;;;5051556;28;20554;-56
2023/06/02 11:16:00;;;;;;;8.00;3.60;;;22.60;99.90;;;;;;5052464;28;20453;-56
2023/06/02 11:18:28;;;;;;;8.80;3.57;;;22.80;99.90;;;;;;5047112;28;20457;-55
2023/06/02 11:20:55;;;;;;;6.73;3.20;;;22.90;99.90;;;;;;5059426;28;20799;-56
2023/06/02 11:23:21;;;;;;;10.10;3.67;;;22.50;99.90;;;;;;5056366;28;20453;-56
2023/06/02 11:25:48;;;;;;;10.80;3.20;;;22.60;99.90;;;;;;5045253;28;20478;-56
2023/06/02 11:28:22;;;;;;;7.20;3.07;;;22.60;99.90;;;;;;5049785;28;20461;-56
2023/06/02 11:31:07;;;;;;;11.33;3.87;;;22.70;99.90;;;;;;5043146;28;20491;-56
2023/06/02 11:33:34;;;;;;;7.70;3.57;;;23.00;99.90;;;;;;5045446;28;20544;-57
2023/06/02 11:36:00;;;;;;;9.33;3.60;;;22.90;99.90;;;;;;5052353;28;20457;-56
2023/06/02 11:38:32;;;;;;;11.07;4.07;;;22.70;99.90;;;;;;5047730;28;20458;-56
2023/06/02 11:41:11;;;;;;;11.20;4.00;;;22.30;99.90;;;;;;5055750;28;20812;-56
2023/06/02 11:43:48;;;;;;;9.10;3.87;;;22.20;99.90;;;;;;5060176;28;20598;-55
2023/06/02 11:46:16;;;;;;;9.03;4.40;;;22.40;99.90;;;;;;5061343;28;20450;-57
2023/06/02 11:48:43;;;;;;;8.33;3.50;;;22.80;99.90;;;;;;5064248;28;20441;-57
2023/06/02 11:51:11;;;;;;;7.10;3.87;;;23.00;99.90;;;;;;5049014;28;20473;-57
2023/06/02 11:53:43;;;;;;;9.80;4.23;;;23.00;99.90;;;;;;5061754;28;20443;-56
2023/06/02 11:56:09;;;;;;;7.43;3.43;;;22.90;99.90;;;;;;5049046;28;20488;-55
2023/06/02 11:58:45;;;;;;;7.90;3.40;;;22.80;99.90;;;;;;5049906;28;20485;-55
2023/06/02 12:01:17;;;;;;;6.70;3.70;;;21.90;99.90;;;;;;5047320;28;20183;-55
2023/06/02 12:04:11;;;;;;;6.17;3.70;;;21.60;99.90;;;;;;5054599;28;20450;-56
2023/06/02 12:06:45;;;;;;;10.67;3.80;;;21.30;99.90;;;;;;5055110;28;23191;-56
2023/06/02 12:09:11;;;;;;;11.97;3.67;;;21.20;99.90;;;;;;5053268;28;20954;-55
2023/06/02 12:11:37;;;;;;;13.13;4.50;;;20.80;99.90;;;;;;5060001;28;20448;-56
2023/06/02 12:14:05;;;;;;;8.63;4.20;;;20.30;99.90;;;;;;5060869;28;20659;-55
2023/06/02 12:16:32;;;;;;;9.00;4.63;;;19.70;99.90;;;;;;5064955;28;20492;-55
2023/06/02 12:19:14;;;;;;;9.60;4.10;;;19.50;99.90;;;;;;5057847;28;20909;-55
2023/06/02 12:21:40;;;;;;;7.43;3.87;;;19.30;99.90;;;;;;5049898;28;20460;-55
2023/06/02 12:24:06;;;;;;;12.03;4.17;;;19.30;99.90;;;;;;5052276;28;20476;-55
2023/06/02 12:26:40;;;;;;;7.13;3.87;;;19.30;99.90;;;;;;5059796;28;20480;-56
2023/06/02 12:29:07;;;;;;;11.03;4.80;;;19.50;99.90;;;;;;5065274;28;20441;-56
2023/06/02 12:31:32;;;;;;;13.17;5.00;;;19.60;99.90;;;;;;5054810;28;20948;-56
2023/06/02 12:33:58;;;;;;;8.07;4.00;;;19.80;99.90;;;;;;5059081;28;20540;-55
2023/06/02 12:36:26;;;;;;;9.90;4.13;;;19.90;99.90;;;;;;5055912;28;20221;-55
2023/06/02 12:38:52;;;;;;;9.40;3.90;;;19.90;99.90;;;;;;5063632;28;20544;-56
2023/06/02 12:41:17;;;;;;;12.83;5.87;;;20.00;99.90;;;;;;5055343;28;20451;-55
2023/06/02 12:43:43;;;;;;;16.10;5.20;;;20.00;99.90;;;;;;5054359;28;20183;-55
2023/06/02 12:46:13;;;;;;;8.43;4.07;;;20.10;99.90;;;;;;5059937;28;20183;-56
2023/06/02 12:48:39;;;;;;;8.03;4.53;;;19.80;99.90;;;;;;5060425;28;20182;-56